Time;durP1;ratioP1;P1;durP2;ratioP2;P2;SDS_P1;SDS_P2;PMS_P1;PMS_P2;Temp;Humidity;BMP_temperature;BMP_pressure;BME280_temperature;BME280_humidity;BME280_pressure;Samples;Min_cycle;Max_cycle;Signal;HPM_P1;HPM_P2
2022/11/08 00:01:33;;;;;;;12.60;3.60;;;12.30;99.90;;;;;;4991746;28;20046;-77
2022/11/08 00:04:00;;;;;;;12.63;3.58;;;12.20;99.90;;;;;;4993582;28;20451;-77
2022/11/08 00:14:40;;;;;;;8.73;2.72;;;12.20;99.90;;;;;;4990199;28;20128;-77
2022/11/08 00:17:05;;;;;;;11.10;3.03;;;12.20;99.90;;;;;;4992503;28;20483;-77
2022/11/08 00:19:31;;;;;;;8.10;3.05;;;12.20;99.90;;;;;;4992309;28;20030;-77
2022/11/08 00:21:56;;;;;;;11.65;3.38;;;12.20;99.90;;;;;;4993201;28;20088;-77
2022/11/08 00:24:22;;;;;;;10.88;3.10;;;12.20;99.90;;;;;;4993569;28;20102;-77
2022/11/08 00:26:47;;;;;;;11.80;3.00;;;12.20;99.90;;;;;;4992869;28;20121;-77
2022/11/08 00:29:13;;;;;;;11.07;2.90;;;12.20;99.90;;;;;;5010507;28;20040;-77
2022/11/08 00:31:38;;;;;;;11.60;3.08;;;12.20;99.90;;;;;;4994104;28;20053;-77
2022/11/08 00:34:04;;;;;;;13.73;2.95;;;12.20;99.90;;;;;;4992338;28;20046;-77
2022/11/08 00:36:30;;;;;;;13.93;3.80;;;12.20;99.90;;;;;;4993922;28;20042;-77
2022/11/08 00:38:55;;;;;;;9.75;2.70;;;12.20;99.90;;;;;;4991807;28;20490;-77
2022/11/08 00:41:21;;;;;;;11.40;2.92;;;12.20;99.90;;;;;;4992980;28;20077;-77
2022/11/08 00:43:46;;;;;;;12.63;3.47;;;12.20;99.90;;;;;;4993165;28;20061;-77
2022/11/08 00:46:12;;;;;;;13.30;3.03;;;12.20;99.90;;;;;;4977735;28;20037;-76
2022/11/08 00:48:37;;;;;;;10.90;3.20;;;12.20;99.90;;;;;;4991071;28;20034;-77
2022/11/08 00:51:05;;;;;;;11.02;3.10;;;12.20;99.90;;;;;;4993000;28;20511;-77
2022/11/08 00:53:31;;;;;;;12.73;3.50;;;12.10;99.90;;;;;;4986252;28;20186;-77
2022/11/08 00:56:01;;;;;;;12.10;3.30;;;12.20;99.90;;;;;;4992689;28;20060;-77
2022/11/08 00:58:27;;;;;;;9.48;2.70;;;12.10;99.90;;;;;;4992371;28;20471;-76
2022/11/08 01:00:53;;;;;;;13.85;2.88;;;12.10;99.90;;;;;;4993408;28;20052;-77
2022/11/08 01:03:19;;;;;;;10.85;3.10;;;12.10;99.90;;;;;;4992147;28;20037;-76
2022/11/08 01:05:46;;;;;;;11.63;3.17;;;12.10;99.90;;;;;;4993731;28;20034;-77
2022/11/08 01:08:12;;;;;;;9.20;2.58;;;12.10;99.90;;;;;;4992151;28;20124;-77
2022/11/08 01:10:42;;;;;;;8.57;3.00;;;12.10;99.90;;;;;;4993686;28;20137;-77
2022/11/08 01:13:08;;;;;;;9.13;3.33;;;12.10;99.90;;;;;;4992703;28;20041;-77
2022/11/08 01:15:39;;;;;;;13.00;3.03;;;12.10;99.90;;;;;;4991935;28;20041;-77
2022/11/08 01:18:05;;;;;;;14.10;3.00;;;12.10;99.90;;;;;;4992253;28;20046;-77
2022/11/08 01:20:32;;;;;;;9.55;2.97;;;12.10;99.90;;;;;;4995007;28;20080;-77
2022/11/08 01:22:57;;;;;;;12.00;2.92;;;12.10;99.90;;;;;;4990826;28;20117;-77
2022/11/08 01:25:23;;;;;;;11.00;2.88;;;12.10;99.90;;;;;;4996401;28;20209;-77
2022/11/08 01:27:48;;;;;;;12.20;3.03;;;12.10;99.90;;;;;;4995611;28;20073;-77
2022/11/08 01:30:14;;;;;;;13.25;2.53;;;12.10;99.90;;;;;;4996329;28;20030;-77
2022/11/08 01:32:39;;;;;;;10.68;2.85;;;12.00;99.90;;;;;;5014262;28;20084;-77
2022/11/08 01:35:05;;;;;;;10.77;3.10;;;12.00;99.90;;;;;;4996136;28;20050;-77
2022/11/08 01:37:31;;;;;;;10.93;2.70;;;12.00;99.90;;;;;;4979951;28;20038;-77
2022/11/08 01:39:56;;;;;;;9.95;2.97;;;11.90;99.90;;;;;;4981027;28;20041;-77
2022/11/08 01:42:30;;;;;;;10.32;2.47;;;11.90;99.90;;;;;;4996201;28;20042;-77
2022/11/08 01:45:00;;;;;;;9.27;2.67;;;11.90;99.90;;;;;;4996482;28;20121;-77
2022/11/08 01:47:26;;;;;;;9.70;2.70;;;11.90;99.90;;;;;;4995172;28;20038;-79
2022/11/08 01:49:55;;;;;;;9.80;2.95;;;11.90;99.90;;;;;;4996593;28;20405;-77
2022/11/08 01:52:32;;;;;;;10.23;2.47;;;11.90;99.90;;;;;;4994941;28;20049;-77
2022/11/08 01:55:00;;;;;;;10.02;3.10;;;11.90;99.90;;;;;;4996997;28;20038;-76
2022/11/08 01:57:45;;;;;;;8.30;2.25;;;11.90;99.90;;;;;;4994824;28;20053;-78
2022/11/08 02:00:11;;;;;;;10.50;2.80;;;11.90;99.90;;;;;;4979972;28;20121;-77
2022/11/08 02:02:39;;;;;;;12.40;3.00;;;11.90;99.90;;;;;;4995432;28;20113;-76
2022/11/08 02:05:23;;;;;;;12.93;2.72;;;11.90;99.90;;;;;;4976246;28;20034;-77
2022/11/08 02:08:08;;;;;;;8.68;2.35;;;11.90;99.90;;;;;;4995358;28;20045;-76
2022/11/08 02:10:39;;;;;;;9.88;2.47;;;11.90;99.90;;;;;;4990507;28;20046;-77
2022/11/08 02:13:10;;;;;;;10.70;2.63;;;11.90;99.90;;;;;;4995207;28;20500;-77
2022/11/08 02:15:35;;;;;;;10.32;3.20;;;11.90;99.90;;;;;;4995929;28;20038;-77
2022/11/08 02:18:02;;;;;;;13.55;2.70;;;11.80;99.90;;;;;;4995529;28;20412;-77
2022/11/08 02:20:27;;;;;;;9.32;2.33;;;11.90;99.90;;;;;;4994243;28;20056;-76
2022/11/08 02:23:09;;;;;;;10.85;2.30;;;11.90;99.90;;;;;;4994523;28;20495;-76
2022/11/08 02:25:34;;;;;;;10.68;2.63;;;11.80;99.90;;;;;;4989194;28;20088;-77
2022/11/08 02:28:00;;;;;;;9.75;2.40;;;11.80;99.90;;;;;;4995278;28;20042;-77
2022/11/08 02:30:32;;;;;;;9.90;2.58;;;11.80;99.90;;;;;;4995371;28;20026;-77
2022/11/08 02:32:58;;;;;;;11.27;2.40;;;11.80;99.90;;;;;;4993782;28;20084;-77
2022/11/08 02:35:25;;;;;;;10.02;2.70;;;11.80;99.90;;;;;;4993589;28;20836;-77
2022/11/08 02:37:50;;;;;;;11.60;3.00;;;11.70;99.90;;;;;;4993771;28;20049;-77
2022/11/08 02:40:16;;;;;;;11.45;2.88;;;11.70;99.90;;;;;;4996093;28;20038;-77
2022/11/08 02:42:42;;;;;;;7.85;2.22;;;11.70;99.90;;;;;;4994554;28;20408;-78
2022/11/08 02:45:08;;;;;;;9.13;2.70;;;11.60;99.90;;;;;;4994236;28;20069;-77
2022/11/08 02:47:33;;;;;;;11.82;2.90;;;11.60;99.90;;;;;;4994827;28;20036;-77
2022/11/08 02:49:59;;;;;;;10.32;2.50;;;11.60;99.90;;;;;;4995078;28;20509;-77
2022/11/08 02:52:24;;;;;;;9.52;2.78;;;11.60;99.90;;;;;;4994987;28;20423;-77
2022/11/08 02:54:50;;;;;;;10.57;2.42;;;11.60;99.90;;;;;;4993321;28;20069;-77
2022/11/08 02:57:15;;;;;;;13.50;2.90;;;11.50;99.90;;;;;;4994094;28;20184;-77
2022/11/08 02:59:41;;;;;;;10.23;2.72;;;11.40;99.90;;;;;;4993806;28;20116;-77
2022/11/08 03:02:06;;;;;;;14.55;3.20;;;11.40;99.90;;;;;;4994858;28;20524;-77
2022/11/08 03:04:32;;;;;;;11.95;3.08;;;11.40;99.90;;;;;;4994910;28;20048;-77
2022/11/08 03:06:58;;;;;;;10.30;2.60;;;11.40;99.90;;;;;;4994829;28;20041;-78
2022/11/08 03:09:25;;;;;;;8.45;2.65;;;11.30;99.90;;;;;;5011356;28;20046;-77
2022/11/08 03:11:51;;;;;;;9.40;2.95;;;11.30;99.90;;;;;;4994976;28;20042;-78
2022/11/08 03:14:17;;;;;;;9.40;2.88;;;11.30;99.90;;;;;;4992811;28;20041;-77
2022/11/08 03:16:42;;;;;;;9.07;2.78;;;11.30;99.90;;;;;;4994337;28;20471;-77
2022/11/08 03:19:10;;;;;;;8.48;2.45;;;11.20;99.90;;;;;;4975880;28;20034;-77
2022/11/08 03:21:36;;;;;;;9.95;3.10;;;11.20;99.90;;;;;;4994240;28;20393;-77
2022/11/08 03:24:03;;;;;;;9.77;2.80;;;11.20;99.90;;;;;;4994731;28;20044;-77
2022/11/08 03:26:29;;;;;;;11.40;2.90;;;11.20;99.90;;;;;;4994404;28;20408;-77
2022/11/08 03:28:55;;;;;;;12.23;3.08;;;11.10;99.90;;;;;;4992259;28;20080;-77
2022/11/08 03:31:20;;;;;;;12.50;2.83;;;11.10;99.90;;;;;;4994968;28;20042;-77
2022/11/08 03:33:46;;;;;;;12.38;2.85;;;11.10;99.90;;;;;;4993403;28;20450;-76
2022/11/08 03:36:11;;;;;;;11.50;3.17;;;11.10;99.90;;;;;;4994053;28;20038;-77
2022/11/08 03:38:37;;;;;;;7.00;2.72;;;11.20;99.90;;;;;;4993864;28;20034;-77
2022/11/08 03:41:02;;;;;;;8.55;2.72;;;11.20;99.90;;;;;;4993596;28;20408;-77
2022/11/08 03:43:28;;;;;;;11.52;3.33;;;11.20;99.90;;;;;;4993362;28;20069;-78
2022/11/08 03:45:53;;;;;;;10.57;3.08;;;11.10;99.90;;;;;;5011053;28;20061;-77
2022/11/08 03:48:19;;;;;;;9.90;2.80;;;11.10;99.90;;;;;;4975099;28;20076;-77
2022/11/08 03:50:45;;;;;;;11.10;3.15;;;11.10;99.90;;;;;;4992032;28;20037;-77
2022/11/08 03:53:10;;;;;;;12.70;3.10;;;11.10;99.90;;;;;;4993169;28;20042;-77
2022/11/08 03:55:36;;;;;;;9.27;2.72;;;11.10;99.90;;;;;;4993606;28;20049;-77
2022/11/08 03:58:01;;;;;;;10.13;3.53;;;11.10;99.90;;;;;;4991548;28;20107;-77
2022/11/08 04:00:28;;;;;;;6.38;2.78;;;11.00;99.90;;;;;;4993466;28;20566;-77
2022/11/08 04:02:59;;;;;;;9.77;2.58;;;11.00;99.90;;;;;;4992783;28;20168;-77
2022/11/08 04:05:25;;;;;;;10.82;3.28;;;11.00;99.90;;;;;;4993425;28;20049;-77
2022/11/08 04:07:51;;;;;;;10.43;2.90;;;10.90;99.90;;;;;;4993367;28;20056;-77
2022/11/08 04:10:16;;;;;;;6.75;2.60;;;11.00;99.90;;;;;;4993099;28;20068;-77
2022/11/08 04:15:28;;;;;;;8.57;3.05;;;11.00;99.90;;;;;;4993465;28;20057;-77
2022/11/08 04:23:25;;;;;;;8.32;3.08;;;10.90;99.90;;;;;;4992815;28;20478;-77
2022/11/08 04:26:01;;;;;;;12.85;2.70;;;10.80;99.90;;;;;;4993284;28;20033;-77
2022/11/08 04:28:32;;;;;;;8.52;2.80;;;10.80;99.90;;;;;;4993044;28;20030;-77
2022/11/08 04:31:06;;;;;;;5.78;2.70;;;10.80;99.90;;;;;;4998924;28;20052;-77
2022/11/08 04:33:32;;;;;;;9.30;2.78;;;10.70;99.90;;;;;;4991672;28;20096;-77
2022/11/08 04:36:07;;;;;;;8.85;3.00;;;10.70;99.90;;;;;;4992945;28;20080;-77
2022/11/08 04:38:33;;;;;;;7.82;2.80;;;10.70;99.90;;;;;;4976966;28;20048;-76
2022/11/08 04:41:04;;;;;;;9.02;2.78;;;10.70;99.90;;;;;;4976859;28;20038;-77
2022/11/08 04:43:30;;;;;;;6.82;2.60;;;10.70;99.90;;;;;;4973240;28;20041;-77
2022/11/08 04:46:10;;;;;;;11.38;3.70;;;10.80;99.90;;;;;;4992869;28;20083;-77
2022/11/08 04:48:35;;;;;;;8.02;2.83;;;10.80;99.90;;;;;;4991082;28;20042;-77
2022/11/08 04:51:08;;;;;;;7.72;2.72;;;10.80;99.90;;;;;;4992287;28;20034;-77
2022/11/08 04:53:34;;;;;;;7.30;3.05;;;10.80;99.90;;;;;;4993179;28;20084;-77
2022/11/08 04:56:06;;;;;;;13.40;2.97;;;10.80;99.90;;;;;;4976817;28;20442;-77
2022/11/08 04:58:39;;;;;;;8.88;2.90;;;10.80;99.90;;;;;;4987824;28;20542;-77
2022/11/08 05:01:07;;;;;;;6.43;2.42;;;10.80;99.90;;;;;;4976416;28;20045;-77
2022/11/08 05:03:33;;;;;;;10.20;2.80;;;10.90;99.90;;;;;;4992997;28;20034;-77
2022/11/08 05:06:04;;;;;;;9.00;2.58;;;10.90;99.90;;;;;;4992870;28;20045;-77
2022/11/08 05:08:30;;;;;;;11.10;2.92;;;10.90;99.90;;;;;;4984430;28;20109;-77
2022/11/08 05:11:06;;;;;;;7.70;2.80;;;10.80;99.90;;;;;;4991257;28;20509;-77
2022/11/08 05:13:32;;;;;;;10.70;2.80;;;10.90;99.90;;;;;;4985071;28;20553;-77
2022/11/08 05:16:04;;;;;;;8.35;2.38;;;10.90;99.90;;;;;;4993671;28;20042;-77
2022/11/08 05:18:31;;;;;;;6.90;2.40;;;10.90;99.90;;;;;;4982072;28;20499;-77
2022/11/08 05:23:43;;;;;;;5.47;2.40;;;10.90;99.90;;;;;;4985725;28;20037;-77
2022/11/08 05:26:09;;;;;;;8.00;2.45;;;10.90;99.90;;;;;;4992437;28;20034;-77
2022/11/08 05:28:35;;;;;;;7.68;2.58;;;10.90;99.90;;;;;;4991083;28;20038;-76
2022/11/08 05:31:01;;;;;;;10.35;2.75;;;10.90;99.90;;;;;;4991111;28;20117;-77
2022/11/08 05:33:26;;;;;;;7.82;2.30;;;10.90;99.90;;;;;;4991560;28;20034;-77
2022/11/08 05:35:52;;;;;;;7.85;2.50;;;10.90;99.90;;;;;;4992640;28;20072;-77
2022/11/08 05:38:18;;;;;;;7.95;2.70;;;10.90;99.90;;;;;;4992048;28;20049;-77
2022/11/08 05:40:44;;;;;;;7.53;2.17;;;10.90;99.90;;;;;;4993262;28;20038;-76
2022/11/08 05:43:09;;;;;;;10.10;2.83;;;10.90;99.90;;;;;;4992542;28;20096;-77
2022/11/08 05:45:35;;;;;;;6.75;2.55;;;10.80;99.90;;;;;;4991294;28;20120;-77
2022/11/08 05:48:02;;;;;;;9.90;2.53;;;10.80;99.90;;;;;;4991321;28;20101;-77
2022/11/08 05:50:32;;;;;;;11.23;2.85;;;10.80;99.90;;;;;;4990058;28;20522;-76
2022/11/08 05:52:58;;;;;;;8.48;2.70;;;10.70;99.90;;;;;;4990697;28;20045;-76
2022/11/08 05:55:24;;;;;;;9.32;2.70;;;10.70;99.90;;;;;;4992162;28;20121;-76
2022/11/08 05:57:50;;;;;;;8.18;2.13;;;10.60;99.90;;;;;;4990323;28;20431;-76
2022/11/08 06:00:16;;;;;;;6.78;2.35;;;10.60;99.90;;;;;;4992363;28;20084;-77
2022/11/08 06:02:42;;;;;;;7.53;2.35;;;10.60;99.90;;;;;;4990260;28;20033;-76
2022/11/08 06:05:08;;;;;;;6.53;2.25;;;10.60;99.90;;;;;;4992188;28;20088;-76
2022/11/08 06:07:34;;;;;;;6.93;2.20;;;10.60;99.90;;;;;;4991858;28;20495;-76
2022/11/08 06:09:59;;;;;;;6.35;2.22;;;10.50;99.90;;;;;;4990892;28;20062;-76
2022/11/08 06:12:25;;;;;;;6.53;2.13;;;10.50;99.90;;;;;;4979228;28;20034;-77
2022/11/08 06:14:50;;;;;;;5.15;2.40;;;10.50;99.90;;;;;;4995475;28;20048;-77
2022/11/08 06:17:16;;;;;;;6.88;3.05;;;10.50;99.90;;;;;;4994851;28;20915;-76
2022/11/08 06:19:41;;;;;;;9.27;2.42;;;10.50;99.90;;;;;;4996120;28;20048;-77
2022/11/08 06:22:07;;;;;;;11.90;3.15;;;10.40;99.90;;;;;;4994559;28;20041;-77
2022/11/08 06:24:33;;;;;;;7.88;2.30;;;10.50;99.90;;;;;;4979516;28;20061;-77
2022/11/08 06:26:58;;;;;;;6.38;2.33;;;10.50;99.90;;;;;;4990251;28;20038;-77
2022/11/08 06:29:24;;;;;;;5.88;2.40;;;10.40;99.90;;;;;;4993390;28;20050;-77
2022/11/08 06:31:50;;;;;;;6.50;2.33;;;10.50;99.90;;;;;;4994564;28;20419;-77
2022/11/08 06:34:15;;;;;;;7.20;2.40;;;10.50;99.90;;;;;;4995710;28;20548;-77
2022/11/08 06:36:41;;;;;;;4.63;2.10;;;10.50;99.90;;;;;;4995267;28;20447;-77
2022/11/08 06:39:07;;;;;;;6.15;2.05;;;10.50;99.90;;;;;;4994431;28;20085;-77
2022/11/08 06:41:33;;;;;;;5.85;2.17;;;10.50;99.90;;;;;;4993969;28;20504;-77
2022/11/08 06:43:59;;;;;;;7.80;2.28;;;10.50;99.90;;;;;;4994969;28;20044;-77
2022/11/08 06:46:25;;;;;;;7.30;2.40;;;10.50;99.90;;;;;;4994403;28;20046;-77
2022/11/08 06:48:50;;;;;;;4.63;1.83;;;10.50;99.90;;;;;;4995617;28;20037;-76
2022/11/08 06:51:16;;;;;;;5.13;2.20;;;10.40;99.90;;;;;;4994225;28;20120;-77
2022/11/08 06:53:43;;;;;;;5.90;2.30;;;10.50;99.90;;;;;;4994293;28;20469;-77
2022/11/08 06:56:08;;;;;;;7.55;2.25;;;10.50;99.90;;;;;;5000650;28;20052;-77
2022/11/08 06:58:34;;;;;;;8.05;2.08;;;10.50;99.90;;;;;;4993983;28;20037;-77
2022/11/08 07:01:05;;;;;;;6.75;2.35;;;10.50;99.90;;;;;;4994485;28;20045;-77
2022/11/08 07:03:31;;;;;;;6.13;2.30;;;10.60;99.90;;;;;;4984843;28;20065;-77
2022/11/08 07:05:56;;;;;;;9.25;2.75;;;10.70;99.90;;;;;;4979618;28;20119;-77
2022/11/08 07:08:22;;;;;;;6.03;2.47;;;10.70;99.90;;;;;;4994687;28;20034;-77
2022/11/08 07:10:48;;;;;;;6.10;2.35;;;10.70;99.90;;;;;;4995685;28;20119;-77
2022/11/08 07:13:14;;;;;;;5.78;2.15;;;10.70;99.90;;;;;;4994644;28;20080;-77
2022/11/08 07:15:41;;;;;;;9.05;2.42;;;10.80;99.90;;;;;;4994793;28;20053;-77
2022/11/08 07:18:11;;;;;;;9.75;2.80;;;10.80;99.90;;;;;;4993250;28;20538;-77
2022/11/08 07:20:38;;;;;;;6.88;2.42;;;10.80;99.90;;;;;;4992764;28;20038;-77
2022/11/08 07:23:04;;;;;;;9.95;2.70;;;10.80;99.90;;;;;;4991540;28;20026;-77
2022/11/08 07:25:30;;;;;;;6.65;2.47;;;10.90;99.90;;;;;;4994652;28;20029;-77
2022/11/08 07:28:04;;;;;;;7.32;2.90;;;10.90;99.90;;;;;;4995766;28;20034;-77
2022/11/08 07:30:31;;;;;;;9.23;2.55;;;11.00;99.90;;;;;;5008425;28;20041;-77
2022/11/08 07:32:57;;;;;;;9.68;2.80;;;11.00;99.90;;;;;;4975376;28;20550;-77
2022/11/08 07:35:24;;;;;;;6.75;2.33;;;11.00;99.90;;;;;;4994414;28;20034;-77
2022/11/08 07:37:49;;;;;;;7.70;2.92;;;11.10;99.90;;;;;;4992982;28;20037;-77
2022/11/08 07:40:15;;;;;;;5.32;2.38;;;11.10;99.90;;;;;;4995187;28;20056;-77
2022/11/08 07:42:41;;;;;;;3.70;2.00;;;11.20;99.90;;;;;;4992604;28;20069;-78
2022/11/08 07:45:09;;;;;;;7.22;2.35;;;11.10;99.90;;;;;;4977454;28;20060;-79
2022/11/08 07:47:34;;;;;;;6.18;2.55;;;11.20;99.90;;;;;;4990424;28;20038;-77
2022/11/08 07:50:00;;;;;;;6.00;2.10;;;11.20;99.90;;;;;;4992477;28;20040;-78
2022/11/08 07:52:26;;;;;;;7.85;2.08;;;11.30;99.90;;;;;;4990256;28;20041;-78
2022/11/08 07:54:52;;;;;;;6.20;2.22;;;11.30;99.90;;;;;;4991792;28;20041;-78
2022/11/08 07:57:18;;;;;;;5.07;2.33;;;11.30;99.90;;;;;;4991102;28;20046;-79
2022/11/08 07:59:43;;;;;;;3.65;1.80;;;11.40;99.90;;;;;;4992192;28;20045;-77
2022/11/08 08:02:13;;;;;;;4.55;1.83;;;11.40;99.90;;;;;;4991378;28;20069;-78
2022/11/08 08:04:39;;;;;;;7.38;2.28;;;11.50;99.90;;;;;;4994431;28;20030;-78
2022/11/08 08:07:05;;;;;;;7.53;2.00;;;11.60;99.90;;;;;;4991826;28;20034;-78
2022/11/08 08:09:33;;;;;;;5.07;1.90;;;11.60;99.90;;;;;;4977474;28;20069;-77
2022/11/08 08:11:59;;;;;;;5.63;1.90;;;11.70;99.90;;;;;;4989582;28;20044;-78
2022/11/08 08:14:25;;;;;;;6.18;2.30;;;11.80;99.90;;;;;;4991909;28;20121;-77
2022/11/08 08:16:51;;;;;;;3.55;1.83;;;11.80;99.90;;;;;;4992998;28;20042;-77
2022/11/08 08:19:17;;;;;;;5.20;2.15;;;11.80;99.90;;;;;;4994004;28;20037;-77
2022/11/08 08:21:42;;;;;;;3.08;1.88;;;11.90;99.90;;;;;;4992172;28;20482;-77
2022/11/08 08:24:08;;;;;;;8.05;2.58;;;11.90;99.90;;;;;;4993028;28;20113;-76
2022/11/08 08:26:34;;;;;;;4.15;1.75;;;11.90;99.90;;;;;;4994384;28;20073;-78
2022/11/08 08:28:59;;;;;;;3.50;1.70;;;11.80;99.90;;;;;;4993917;28;20084;-77
2022/11/08 08:31:25;;;;;;;4.07;1.83;;;11.80;99.90;;;;;;4994231;28;20042;-77
2022/11/08 08:33:50;;;;;;;5.43;2.20;;;11.80;99.90;;;;;;4993667;28;20048;-76
2022/11/08 08:36:16;;;;;;;3.35;1.90;;;11.80;99.90;;;;;;4994510;28;20492;-77
2022/11/08 08:38:41;;;;;;;4.55;1.95;;;11.80;99.90;;;;;;4993802;28;20133;-77
2022/11/08 08:41:07;;;;;;;4.75;2.33;;;11.90;99.90;;;;;;4994194;28;20136;-77
2022/11/08 08:43:32;;;;;;;6.13;2.08;;;11.90;99.90;;;;;;4994123;28;20049;-77
2022/11/08 08:46:02;;;;;;;5.03;1.95;;;11.90;99.90;;;;;;4977671;28;20447;-77
2022/11/08 08:48:28;;;;;;;7.05;2.13;;;11.90;99.90;;;;;;4992528;28;20049;-78
2022/11/08 08:50:54;;;;;;;6.63;2.30;;;12.00;99.90;;;;;;4992637;28;20037;-77
2022/11/08 08:53:19;;;;;;;4.70;2.05;;;12.00;99.90;;;;;;4992521;28;20096;-77
2022/11/08 08:55:46;;;;;;;4.60;2.05;;;12.00;99.90;;;;;;4992932;28;20041;-78
2022/11/08 08:58:13;;;;;;;4.40;2.00;;;12.10;99.90;;;;;;4991692;28;20042;-79
2022/11/08 09:00:38;;;;;;;4.75;2.40;;;12.20;99.90;;;;;;4992575;28;20111;-77
2022/11/08 09:03:06;;;;;;;5.47;1.95;;;12.20;99.90;;;;;;4992503;28;20041;-77
2022/11/08 09:05:32;;;;;;;6.20;2.22;;;12.30;99.90;;;;;;4993224;28;20463;-77
2022/11/08 09:07:59;;;;;;;5.13;2.30;;;12.30;99.90;;;;;;4992058;28;20145;-77
2022/11/08 09:10:25;;;;;;;4.75;2.13;;;12.40;99.90;;;;;;4993359;28;20562;-77
2022/11/08 09:12:51;;;;;;;6.75;2.40;;;12.40;99.90;;;;;;4976980;28;20041;-77
2022/11/08 09:15:16;;;;;;;4.18;2.05;;;12.50;99.90;;;;;;4993264;28;20563;-77
2022/11/08 09:17:42;;;;;;;5.32;2.17;;;12.60;99.90;;;;;;4992830;28;20041;-77
2022/11/08 09:20:09;;;;;;;4.93;2.25;;;12.60;99.90;;;;;;4977173;28;20038;-77
2022/11/08 09:22:35;;;;;;;6.30;2.03;;;12.60;99.90;;;;;;4976832;28;20034;-77
2022/11/08 09:25:01;;;;;;;8.15;2.38;;;12.70;99.90;;;;;;4993103;28;20041;-77
2022/11/08 09:27:28;;;;;;;6.00;2.03;;;12.70;99.90;;;;;;4992970;28;20034;-78
2022/11/08 09:29:54;;;;;;;5.45;2.13;;;12.70;99.90;;;;;;4993144;28;20499;-77
2022/11/08 09:32:20;;;;;;;4.32;1.92;;;12.80;99.90;;;;;;4993402;28;20053;-78
2022/11/08 09:34:45;;;;;;;4.53;1.90;;;12.80;99.90;;;;;;4993107;28;20030;-77
2022/11/08 09:37:11;;;;;;;9.18;2.38;;;12.90;99.90;;;;;;4992767;28;20125;-78
2022/11/08 09:39:37;;;;;;;4.57;2.45;;;13.00;99.90;;;;;;4993161;28;20092;-78
2022/11/08 09:42:30;;;;;;;4.85;1.90;;;13.00;99.90;;;;;;4991525;28;20048;-78
2022/11/08 09:45:17;;;;;;;4.93;1.90;;;13.10;99.90;;;;;;4991898;28;20543;-77
2022/11/08 09:47:46;;;;;;;4.15;1.70;;;13.20;99.90;;;;;;4978742;28;20046;-77
2022/11/08 09:50:21;;;;;;;3.45;1.77;;;13.20;99.90;;;;;;4995391;28;20041;-77
2022/11/08 09:53:15;;;;;;;5.78;2.10;;;13.20;99.90;;;;;;4979894;28;20537;-77
2022/11/08 09:55:49;;;;;;;5.18;2.13;;;13.30;99.90;;;;;;4995098;28;20117;-78
2022/11/08 09:58:20;;;;;;;3.65;2.05;;;13.30;99.90;;;;;;4993360;28;20149;-79
2022/11/08 10:00:49;;;;;;;3.20;1.70;;;13.40;99.90;;;;;;4994797;28;20088;-78
2022/11/08 10:03:16;;;;;;;6.18;2.08;;;13.50;99.90;;;;;;4994969;28;20407;-78
2022/11/08 10:05:55;;;;;;;5.80;1.90;;;13.50;99.90;;;;;;4995100;28;20400;-78
2022/11/08 10:08:31;;;;;;;6.00;1.90;;;13.50;99.90;;;;;;5003032;28;20046;-77
2022/11/08 10:11:04;;;;;;;3.50;1.77;;;13.50;99.90;;;;;;4996439;28;20045;-78
2022/11/08 10:13:59;;;;;;;4.75;2.30;;;13.50;99.90;;;;;;4996503;28;20048;-78
2022/11/08 10:17:07;;;;;;;4.40;1.70;;;13.50;99.90;;;;;;4996792;28;20528;-77
2022/11/08 10:20:00;;;;;;;4.35;2.00;;;13.60;99.90;;;;;;4995899;28;20124;-77
2022/11/08 10:22:40;;;;;;;5.40;2.10;;;13.60;99.90;;;;;;4980362;28;20041;-77
2022/11/08 10:25:35;;;;;;;3.85;1.70;;;13.60;99.90;;;;;;4996409;28;20088;-77
2022/11/08 10:28:02;;;;;;;5.15;1.98;;;13.60;99.90;;;;;;4996121;28;20399;-77
2022/11/08 10:30:39;;;;;;;4.22;1.88;;;13.60;99.90;;;;;;4996351;28;20052;-77
2022/11/08 10:33:31;;;;;;;5.07;2.13;;;13.70;99.90;;;;;;4996555;28;20045;-77
2022/11/08 10:36:12;;;;;;;5.35;2.05;;;13.70;99.90;;;;;;4980007;28;20041;-77
2022/11/08 10:39:01;;;;;;;5.45;1.70;;;13.70;99.90;;;;;;4994343;28;20145;-77
2022/11/08 10:41:42;;;;;;;6.53;1.90;;;13.70;99.90;;;;;;5008288;28;20499;-77
2022/11/08 10:44:14;;;;;;;4.10;1.98;;;13.60;99.90;;;;;;4994948;28;20120;-78
2022/11/08 10:46:54;;;;;;;6.65;2.10;;;13.50;99.90;;;;;;4995621;28;20034;-77
2022/11/08 10:49:24;;;;;;;3.65;1.73;;;13.50;99.90;;;;;;4995441;28;20068;-77
2022/11/08 10:51:55;;;;;;;3.78;1.83;;;13.50;99.90;;;;;;4995938;28;20446;-78
2022/11/08 10:54:39;;;;;;;4.20;1.98;;;13.40;99.90;;;;;;4995660;28;20042;-78
2022/11/08 10:57:05;;;;;;;5.68;1.88;;;13.40;99.90;;;;;;4994970;28;20128;-77
2022/11/08 10:59:31;;;;;;;5.13;1.80;;;13.40;99.90;;;;;;4994676;28;20168;-78
2022/11/08 11:01:57;;;;;;;3.28;1.60;;;13.40;99.90;;;;;;4992931;28;20080;-78
2022/11/08 11:04:30;;;;;;;6.30;1.90;;;13.40;99.90;;;;;;4994390;28;20041;-77
2022/11/08 11:07:01;;;;;;;2.75;1.48;;;13.40;99.90;;;;;;4975824;28;20496;-78
2022/11/08 11:09:27;;;;;;;3.78;1.80;;;13.50;99.90;;;;;;4993715;28;20395;-77
2022/11/08 11:11:58;;;;;;;3.83;1.70;;;13.50;99.90;;;;;;4994950;28;20045;-78
2022/11/08 11:14:24;;;;;;;6.82;1.90;;;13.60;99.90;;;;;;4993660;28;20716;-77
2022/11/08 11:17:15;;;;;;;5.10;1.95;;;13.60;99.90;;;;;;4976171;28;20068;-77
2022/11/08 11:19:51;;;;;;;3.67;1.80;;;13.70;99.90;;;;;;4985920;28;20054;-77
2022/11/08 11:22:32;;;;;;;6.38;1.88;;;13.70;99.90;;;;;;4993095;28;20046;-78
2022/11/08 11:25:06;;;;;;;4.43;1.77;;;13.70;99.90;;;;;;4992600;28;20045;-78
2022/11/08 11:27:35;;;;;;;5.80;1.60;;;13.80;99.90;;;;;;4990898;28;20533;-78
2022/11/08 11:30:21;;;;;;;6.40;2.17;;;13.80;99.90;;;;;;4993900;28;20459;-78
2022/11/08 11:33:03;;;;;;;4.13;1.90;;;13.80;99.90;;;;;;4986184;28;20049;-77
2022/11/08 11:35:54;;;;;;;3.50;1.92;;;13.90;99.90;;;;;;4992751;28;20057;-78
2022/11/08 11:38:37;;;;;;;6.05;1.92;;;14.00;99.90;;;;;;4993666;28;20048;-78
2022/11/08 11:41:10;;;;;;;5.78;1.70;;;14.10;99.90;;;;;;4990650;28;20050;-78
2022/11/08 11:43:47;;;;;;;3.30;1.58;;;14.10;99.90;;;;;;4985784;28;20033;-78
2022/11/08 11:46:38;;;;;;;3.92;1.90;;;14.10;99.90;;;;;;4990013;28;20499;-78
2022/11/08 11:49:11;;;;;;;3.25;1.65;;;14.20;99.90;;;;;;4987487;28;20069;-78
2022/11/08 11:51:37;;;;;;;4.60;1.70;;;14.20;99.90;;;;;;4991644;28;20111;-77
2022/11/08 11:54:05;;;;;;;5.70;1.80;;;14.20;99.90;;;;;;4987962;28;20321;-77
2022/11/08 11:56:39;;;;;;;4.57;1.80;;;14.20;99.90;;;;;;4977528;28;20048;-78
2022/11/08 11:59:14;;;;;;;3.28;1.50;;;14.20;99.90;;;;;;4992558;28;20038;-78
2022/11/08 12:01:46;;;;;;;3.33;1.58;;;14.20;99.90;;;;;;4991891;28;20523;-78
2022/11/08 12:04:31;;;;;;;3.75;1.73;;;14.20;99.90;;;;;;4994376;28;20037;-78
2022/11/08 12:07:13;;;;;;;4.38;1.50;;;14.30;99.90;;;;;;4993861;28;20066;-78
2022/11/08 12:09:52;;;;;;;3.08;1.75;;;14.30;99.90;;;;;;4991245;28;20053;-79
2022/11/08 12:12:46;;;;;;;5.90;1.90;;;14.40;99.90;;;;;;4990952;28;20056;-78
2022/11/08 12:15:27;;;;;;;3.35;1.90;;;14.40;99.90;;;;;;4976414;28;20073;-79
2022/11/08 12:18:12;;;;;;;3.47;1.70;;;14.40;99.90;;;;;;4989639;28;20046;-80
2022/11/08 12:20:59;;;;;;;4.25;1.58;;;14.40;99.90;;;;;;4987041;28;20050;-78
2022/11/08 12:23:37;;;;;;;4.60;2.08;;;14.40;99.90;;;;;;4993864;28;20066;-79
2022/11/08 12:26:06;;;;;;;4.53;1.67;;;14.40;99.90;;;;;;4991626;28;20061;-78
2022/11/08 12:28:46;;;;;;;4.90;1.90;;;14.40;99.90;;;;;;4985123;28;20038;-80
2022/11/08 12:31:20;;;;;;;3.28;1.70;;;14.40;99.90;;;;;;4990239;28;20045;-78
2022/11/08 12:34:00;;;;;;;5.18;2.00;;;14.30;99.90;;;;;;4991453;28;20117;-78
2022/11/08 12:36:41;;;;;;;5.60;1.80;;;14.30;99.90;;;;;;4992839;28;20046;-78
2022/11/08 12:39:15;;;;;;;3.08;1.65;;;14.30;99.90;;;;;;4992398;28;20494;-78
2022/11/08 12:41:58;;;;;;;;;;;14.30;99.90;;;;;;4990196;28;20092;-78
2022/11/08 12:44:39;;;;;;;3.72;1.52;;;14.40;99.90;;;;;;5007618;28;19975;-79
2022/11/08 12:47:34;;;;;;;6.07;1.70;;;14.40;99.90;;;;;;4992909;28;20104;-77
2022/11/08 12:50:19;;;;;;;5.00;1.80;;;14.40;99.90;;;;;;4992525;28;20038;-78
2022/11/08 12:53:14;;;;;;;4.63;1.58;;;14.40;99.90;;;;;;4993726;28;20065;-78
2022/11/08 12:55:43;;;;;;;3.55;1.60;;;14.40;99.90;;;;;;4993455;28;20045;-78
2022/11/08 12:58:27;;;;;;;3.67;1.60;;;14.50;99.90;;;;;;4991148;28;20466;-79
2022/11/08 13:00:57;;;;;;;3.47;1.60;;;14.50;99.90;;;;;;4993807;28;20492;-79
2022/11/08 13:03:41;;;;;;;2.28;1.40;;;14.50;99.90;;;;;;4991674;28;20049;-79
2022/11/08 13:06:21;;;;;;;4.60;1.58;;;14.50;99.90;;;;;;4992585;28;20042;-78
2022/11/08 13:09:23;;;;;;;3.67;1.63;;;14.50;99.90;;;;;;4973938;28;20034;-78
2022/11/08 13:12:03;;;;;;;3.40;1.70;;;14.50;99.90;;;;;;5006773;28;20038;-78
2022/11/08 13:14:29;;;;;;;2.78;1.40;;;14.60;99.90;;;;;;4993459;28;20050;-79
2022/11/08 13:17:18;;;;;;;5.70;1.42;;;14.70;99.90;;;;;;4993434;28;20447;-78
2022/11/08 13:19:50;;;;;;;4.60;1.75;;;14.80;99.90;;;;;;4994709;28;20064;-79